Portada
METAR-TAF:

METAR-TAF

Aeroports :

Basseterre, Saint Kitts i Nevis

latitud: 17-18N, longitud: 062-41W, altitud: 48 m

Observació

L'informe es va fer fa 50 minuts, a les 11:00 UTC
Vent 10 kt del Est/Nord-Est
Temperatura 27°C
Humitat 74%
Pressió 1013 hPa
Visibilitat 10 km o més
Escasses núvols a una alçada de 2100 ft

METAR: TKPK 121100Z 07010KT 9999 FEW021 27/22 Q1013

Hora: 07:50 (11:50 UTC)

Pronòstic

L'informe es va fer fa 29 minuts, a les 11:21 UTC
Pronòstic vàlid del 12 a les 12 UTC al 13 a les 12 UTC
Vent 12 kt del Est/Nord-Est
Visibilitat: 10 km
Escasses núvols a una alçada de 2000 ft

TAF: TKPK 121121Z 1212/1312 07012KT P6SM FEW020 AMD NOT SKED 1302/1311

Observacions i pronòstics meteorològics de més de 4000 aeroports (METAR i TAF).

Les estacions disponibles són els punts grocs i vermells al mapa.

Posi el ratolí al punt desitjat per veure el nom de l'estació.

Feu clic per veure les observacions i els pronòstics meteorològics.

Per canviar el mapa: feu clic els botons verds amb una creu de color negre per apropar; al botó verd amb un guió per allunyar la imatge; o en les fletxes verdes per a mapes adjacents.


METAR-TAF: